Time;durP1;ratioP1;P1;durP2;ratioP2;P2;SDS_P1;SDS_P2;PMS_P1;PMS_P2;Temp;Humidity;BMP_temperature;BMP_pressure;BME280_temperature;BME280_humidity;BME280_pressure;Samples;Min_cycle;Max_cycle;Signal;HPM_P1;HPM_P2
2021/01/18 05:24:37;;;;;;;33.40;22.98;;;0.50;99.90;;;;;;5072386;23;20751;-68
2021/01/18 05:27:08;;;;;;;32.70;23.42;;;0.50;99.90;;;;;;4989337;28;20182;-70
2021/01/18 05:29:36;;;;;;;31.98;22.77;;;0.50;99.90;;;;;;4991851;28;20197;-73
2021/01/18 05:32:02;;;;;;;33.13;24.38;;;0.50;99.90;;;;;;4980137;28;20201;-70
2021/01/18 05:34:29;;;;;;;30.90;23.15;;;0.60;99.90;;;;;;4988270;28;20745;-69
2021/01/18 05:36:56;;;;;;;32.55;24.38;;;0.50;99.90;;;;;;4974704;28;20189;-73
2021/01/18 05:39:31;;;;;;;30.35;22.85;;;0.60;99.90;;;;;;4981708;28;20209;-72
2021/01/18 05:41:58;;;;;;;32.35;23.23;;;0.50;99.90;;;;;;5002239;28;20252;-69
2021/01/18 05:44:32;;;;;;;33.17;23.70;;;0.50;99.90;;;;;;5001258;28;20198;-70
2021/01/18 05:47:06;;;;;;;30.13;22.42;;;0.50;99.90;;;;;;4997889;28;20180;-71
2021/01/18 05:49:49;;;;;;;29.15;22.15;;;0.50;99.90;;;;;;5003088;28;20204;-72
2021/01/18 05:52:26;;;;;;;32.00;22.98;;;0.50;99.90;;;;;;5008198;28;20198;-72
2021/01/18 05:55:16;;;;;;;30.98;22.88;;;0.50;99.90;;;;;;4984910;28;20188;-71
2021/01/18 05:57:50;;;;;;;33.22;23.80;;;0.50;99.90;;;;;;5002833;28;20531;-70
2021/01/18 06:00:30;;;;;;;31.33;23.30;;;0.50;99.90;;;;;;4995416;28;20212;-71
2021/01/18 06:02:57;;;;;;;31.13;22.80;;;0.50;99.90;;;;;;5003604;28;20192;-70
2021/01/18 06:05:33;;;;;;;31.20;22.55;;;0.50;99.90;;;;;;5006310;28;20187;-71
2021/01/18 06:08:19;;;;;;;31.15;23.17;;;0.50;99.90;;;;;;5003194;28;20248;-70
2021/01/18 06:10:49;;;;;;;32.67;23.33;;;0.60;99.90;;;;;;4988364;28;20197;-70
2021/01/18 06:13:24;;;;;;;32.05;24.10;;;0.60;99.90;;;;;;5005805;28;20189;-71
2021/01/18 06:16:09;;;;;;;30.42;23.85;;;0.60;99.90;;;;;;5001681;28;20181;-70
2021/01/18 06:18:36;;;;;;;32.35;23.20;;;0.60;99.90;;;;;;4983701;28;20229;-70
2021/01/18 06:21:07;;;;;;;33.10;24.08;;;0.60;99.90;;;;;;5004527;28;20288;-70
2021/01/18 06:23:33;;;;;;;33.10;23.88;;;0.60;99.90;;;;;;4992050;28;20230;-70
2021/01/18 06:26:00;;;;;;;32.28;22.80;;;0.60;99.90;;;;;;4994218;28;20182;-71
2021/01/18 06:28:35;;;;;;;32.70;23.75;;;0.60;99.90;;;;;;4994770;28;20244;-70
2021/01/18 06:31:11;;;;;;;33.10;25.23;;;0.60;99.90;;;;;;4994042;28;20402;-70
2021/01/18 06:33:48;;;;;;;35.55;24.70;;;0.50;99.90;;;;;;4994003;28;20252;-69
2021/01/18 06:36:21;;;;;;;34.50;23.67;;;0.50;99.90;;;;;;4993425;28;20670;-69
2021/01/18 06:39:07;;;;;;;33.25;24.55;;;0.50;99.90;;;;;;4976598;28;20202;-70
2021/01/18 06:41:38;;;;;;;37.25;25.65;;;0.60;99.90;;;;;;4994480;28;20531;-70
2021/01/18 06:44:05;;;;;;;38.67;26.23;;;0.60;99.90;;;;;;4994390;28;20192;-70
2021/01/18 06:46:35;;;;;;;33.10;25.40;;;0.60;99.90;;;;;;4994474;28;20253;-70
2021/01/18 06:49:02;;;;;;;35.78;26.48;;;0.60;99.90;;;;;;4994118;28;20660;-71
2021/01/18 06:51:29;;;;;;;36.75;25.90;;;0.60;99.90;;;;;;4994265;28;20280;-71
2021/01/18 06:53:57;;;;;;;35.58;26.35;;;0.60;99.90;;;;;;4993766;28;20551;-70
2021/01/18 06:56:23;;;;;;;36.95;30.80;;;0.70;99.90;;;;;;4975781;28;20408;-71
2021/01/18 06:58:51;;;;;;;34.50;27.60;;;0.60;99.90;;;;;;4994022;28;20204;-71
2021/01/18 07:01:37;;;;;;;35.80;26.15;;;0.70;99.90;;;;;;4993747;28;20237;-70
2021/01/18 07:04:11;;;;;;;35.50;26.42;;;0.70;99.90;;;;;;4993683;28;20212;-70
2021/01/18 07:06:38;;;;;;;33.75;25.17;;;0.70;99.90;;;;;;4992483;28;20648;-70
2021/01/18 07:09:19;;;;;;;38.15;26.33;;;0.70;99.90;;;;;;4975004;28;20636;-67
2021/01/18 07:11:46;;;;;;;32.25;25.60;;;0.70;99.90;;;;;;4993789;28;20222;-70
2021/01/18 07:14:13;;;;;;;37.42;26.45;;;0.80;99.90;;;;;;4987941;28;20678;-69
2021/01/18 07:16:40;;;;;;;34.33;24.98;;;0.80;99.90;;;;;;4988182;28;20185;-66
2021/01/18 07:19:08;;;;;;;37.75;27.20;;;0.80;99.90;;;;;;4985754;28;20753;-70
2021/01/18 07:22:05;;;;;;;32.80;26.08;;;0.80;99.90;;;;;;4971133;28;20273;-70
2021/01/18 07:24:34;;;;;;;35.90;25.33;;;0.70;99.90;;;;;;4989965;28;20750;-70
2021/01/18 07:27:05;;;;;;;37.05;26.27;;;0.70;99.90;;;;;;4992885;28;20236;-67
2021/01/18 07:29:32;;;;;;;38.40;27.13;;;0.70;99.90;;;;;;4992097;28;20539;-70
2021/01/18 07:31:59;;;;;;;38.97;26.48;;;1.20;99.90;;;;;;4974561;28;20225;-69
2021/01/18 07:34:27;;;;;;;35.10;25.77;;;0.60;99.90;;;;;;4993310;28;20193;-69
2021/01/18 07:37:05;;;;;;;38.92;27.95;;;0.70;99.90;;;;;;4975320;28;20174;-69
2021/01/18 07:39:32;;;;;;;34.80;25.52;;;0.60;99.90;;;;;;4992628;28;20193;-69
2021/01/18 07:41:59;;;;;;;37.50;26.88;;;0.60;99.90;;;;;;4992871;28;20210;-69
2021/01/18 07:44:41;;;;;;;35.88;26.15;;;0.70;99.90;;;;;;4992894;28;20194;-69
2021/01/18 07:47:09;;;;;;;38.58;27.30;;;0.50;99.90;;;;;;4992335;28;20240;-70
2021/01/18 07:49:37;;;;;;;38.00;25.98;;;0.60;99.90;;;;;;4992809;28;20244;-69
2021/01/18 07:52:13;;;;;;;38.50;28.23;;;0.40;99.90;;;;;;4992328;28;20621;-68
2021/01/18 07:54:39;;;;;;;36.08;26.02;;;0.60;99.90;;;;;;4969488;28;20201;-69
2021/01/18 07:57:25;;;;;;;38.03;27.23;;;0.50;99.90;;;;;;4992221;28;20185;-69
2021/01/18 08:00:17;;;;;;;35.92;25.63;;;0.60;99.90;;;;;;4975321;28;20213;-69
2021/01/18 08:02:47;;;;;;;37.10;27.00;;;0.60;99.90;;;;;;4984960;28;20636;-72
2021/01/18 08:05:45;;;;;;;34.92;24.90;;;0.60;99.90;;;;;;4975249;28;20173;-71
2021/01/18 08:08:15;;;;;;;36.20;26.17;;;0.70;99.90;;;;;;4910058;29;20224;-72
2021/01/18 08:11:02;;;;;;;37.90;25.60;;;0.70;99.90;;;;;;4928438;29;20230;-72
2021/01/18 08:13:31;;;;;;;34.58;27.00;;;0.70;99.90;;;;;;4932112;29;20425;-72
2021/01/18 08:16:08;;;;;;;33.72;25.42;;;0.80;99.90;;;;;;4932973;29;20180;-72
2021/01/18 08:18:33;;;;;;;31.15;24.15;;;0.80;99.90;;;;;;4932646;29;20211;-72
2021/01/18 08:20:59;;;;;;;34.03;24.52;;;0.80;99.90;;;;;;4919267;29;20618;-70
2021/01/18 08:23:43;;;;;;;34.65;23.52;;;0.80;99.90;;;;;;4901622;29;20765;-73
2021/01/18 08:26:10;;;;;;;29.08;22.40;;;0.90;99.90;;;;;;4932206;29;20188;-71
2021/01/18 08:28:36;;;;;;;27.80;20.55;;;1.00;99.90;;;;;;4931205;29;20248;-73
2021/01/18 08:31:02;;;;;;;27.27;21.15;;;1.00;99.90;;;;;;4932136;29;20251;-73
2021/01/18 08:33:28;;;;;;;27.55;21.25;;;1.10;99.90;;;;;;4931009;29;20243;-73
2021/01/18 08:35:57;;;;;;;26.25;20.83;;;1.10;99.90;;;;;;4932228;29;20234;-72
2021/01/18 08:38:28;;;;;;;28.23;21.95;;;1.10;99.90;;;;;;4913508;29;20287;-73
2021/01/18 08:41:08;;;;;;;27.70;20.98;;;1.20;99.90;;;;;;4931199;29;20557;-73
2021/01/18 08:43:50;;;;;;;27.80;20.75;;;1.20;99.90;;;;;;4948650;28;20210;-72
2021/01/18 08:46:42;;;;;;;26.38;20.60;;;1.30;99.90;;;;;;4985069;28;20208;-72
2021/01/18 08:49:20;;;;;;;24.63;20.85;;;1.30;99.90;;;;;;4984362;28;20550;-72
2021/01/18 08:51:47;;;;;;;22.13;17.80;;;1.30;99.90;;;;;;5011438;28;20205;-72
2021/01/18 08:54:31;;;;;;;28.20;20.40;;;1.30;99.90;;;;;;4993599;28;20284;-73
2021/01/18 08:57:26;;;;;;;26.77;19.73;;;1.40;99.90;;;;;;5011284;28;20173;-72
2021/01/18 09:00:07;;;;;;;28.23;19.90;;;1.40;99.90;;;;;;5011267;28;20181;-72
2021/01/18 09:02:33;;;;;;;26.27;19.83;;;1.50;99.90;;;;;;5011398;28;20204;-72
2021/01/18 09:05:18;;;;;;;27.52;21.05;;;1.40;99.90;;;;;;5011453;28;20177;-72
2021/01/18 09:07:45;;;;;;;27.00;21.02;;;1.50;99.90;;;;;;5011892;28;20216;-73
2021/01/18 09:10:16;;;;;;;26.02;20.33;;;1.50;99.90;;;;;;5010425;28;20635;-72
2021/01/18 09:12:43;;;;;;;27.67;20.40;;;1.50;99.90;;;;;;5011290;28;20271;-73
2021/01/18 09:15:10;;;;;;;27.55;20.60;;;1.50;99.90;;;;;;4993311;28;20200;-73
2021/01/18 09:17:36;;;;;;;27.95;20.83;;;1.50;99.90;;;;;;5011767;28;20191;-72
2021/01/18 09:20:08;;;;;;;25.95;20.02;;;1.60;99.90;;;;;;5011701;28;20169;-73
2021/01/18 09:22:37;;;;;;;22.75;18.00;;;1.60;99.90;;;;;;5011736;28;20536;-74
2021/01/18 09:25:11;;;;;;;23.95;17.92;;;1.60;99.90;;;;;;5010623;28;20225;-74
2021/01/18 09:27:38;;;;;;;22.77;17.33;;;1.70;99.90;;;;;;5009380;28;20232;-74
2021/01/18 09:30:25;;;;;;;22.50;17.67;;;1.70;99.90;;;;;;4992962;28;20204;-75
2021/01/18 09:32:58;;;;;;;23.83;19.25;;;1.80;99.90;;;;;;5012278;28;20197;-73
2021/01/18 09:35:26;;;;;;;22.27;17.73;;;1.80;99.90;;;;;;5013876;28;20201;-73
2021/01/18 09:37:51;;;;;;;29.27;22.27;;;1.80;99.90;;;;;;4994060;28;20189;-73
2021/01/18 09:40:17;;;;;;;25.30;20.30;;;1.80;99.90;;;;;;5013231;28;20260;-74
2021/01/18 09:42:48;;;;;;;30.70;22.05;;;1.80;99.90;;;;;;5014792;28;20173;-72
2021/01/18 09:45:14;;;;;;;30.50;23.35;;;1.80;99.90;;;;;;5012414;28;20636;-74
2021/01/18 09:47:41;;;;;;;24.30;19.88;;;1.80;99.90;;;;;;5014751;28;20177;-74
2021/01/18 09:50:15;;;;;;;28.52;21.50;;;1.80;99.90;;;;;;5014262;28;20244;-74
2021/01/18 09:52:51;;;;;;;27.65;21.42;;;1.80;99.90;;;;;;5014337;28;20209;-74
2021/01/18 09:55:23;;;;;;;32.20;22.20;;;1.80;99.90;;;;;;4997331;28;20259;-72
2021/01/18 09:57:57;;;;;;;30.83;22.77;;;1.80;99.90;;;;;;5014166;28;20636;-74
2021/01/18 10:00:26;;;;;;;27.55;20.85;;;1.80;99.90;;;;;;5014419;28;20177;-73
2021/01/18 10:02:54;;;;;;;29.02;22.88;;;1.80;99.90;;;;;;5014074;28;20197;-71
2021/01/18 10:05:47;;;;;;;25.60;19.33;;;1.80;99.90;;;;;;5011573;28;20181;-73
2021/01/18 10:08:23;;;;;;;20.98;16.95;;;1.80;99.90;;;;;;5013047;28;20691;-74
2021/01/18 10:10:50;;;;;;;25.67;19.98;;;1.90;99.90;;;;;;5013727;28;20212;-73
2021/01/18 10:13:18;;;;;;;22.85;18.48;;;1.90;99.90;;;;;;4995242;28;20580;-72
2021/01/18 10:15:47;;;;;;;26.42;21.05;;;1.90;99.90;;;;;;5010537;28;20173;-74
2021/01/18 10:18:37;;;;;;;26.13;19.40;;;2.00;99.90;;;;;;5011700;28;20200;-73
2021/01/18 10:21:05;;;;;;;26.17;19.67;;;2.00;99.90;;;;;;4994144;28;20189;-72
2021/01/18 10:23:45;;;;;;;25.23;19.20;;;2.00;99.90;;;;;;5013286;28;20464;-73
2021/01/18 10:26:22;;;;;;;25.92;20.10;;;2.00;99.90;;;;;;5012935;28;20177;-72
2021/01/18 10:28:54;;;;;;;27.98;20.75;;;2.10;99.90;;;;;;5012689;28;20197;-72
2021/01/18 10:31:24;;;;;;;28.20;19.90;;;2.10;99.90;;;;;;4993633;28;20276;-73
2021/01/18 10:34:09;;;;;;;27.50;21.95;;;2.10;99.90;;;;;;5012998;28;20189;-73
2021/01/18 10:36:35;;;;;;;24.83;19.60;;;2.10;99.90;;;;;;4994727;28;20173;-74
2021/01/18 10:39:01;;;;;;;26.50;20.67;;;2.10;99.90;;;;;;4995635;28;20683;-74
2021/01/18 10:41:29;;;;;;;27.13;21.60;;;2.20;99.90;;;;;;5004809;28;20181;-74
2021/01/18 10:44:02;;;;;;;28.98;22.02;;;2.20;99.90;;;;;;5010393;28;20185;-74
2021/01/18 10:46:29;;;;;;;28.05;20.83;;;2.20;99.90;;;;;;5009747;28;20689;-73
2021/01/18 10:48:56;;;;;;;29.55;22.67;;;2.20;99.90;;;;;;5012695;28;20189;-72
2021/01/18 10:51:29;;;;;;;26.48;22.52;;;2.20;99.90;;;;;;4993936;28;20981;-70
2021/01/18 10:54:01;;;;;;;25.60;21.33;;;2.20;99.90;;;;;;5010330;28;20201;-72
2021/01/18 10:56:34;;;;;;;27.80;21.30;;;2.20;99.90;;;;;;5011299;28;20184;-70
2021/01/18 10:59:01;;;;;;;27.58;21.58;;;2.20;99.90;;;;;;4982632;28;20256;-71
2021/01/18 11:01:28;;;;;;;24.48;20.17;;;2.20;99.90;;;;;;5012587;28;20177;-72
2021/01/18 11:04:03;;;;;;;26.98;20.83;;;2.30;99.90;;;;;;5013352;28;20272;-71
2021/01/18 11:06:35;;;;;;;26.20;21.08;;;2.30;99.90;;;;;;5013009;28;20172;-71
2021/01/18 11:09:00;;;;;;;25.88;20.05;;;2.30;99.90;;;;;;5013230;28;20209;-71
2021/01/18 11:11:27;;;;;;;26.08;20.98;;;2.30;99.90;;;;;;5012486;28;20319;-72
2021/01/18 11:14:01;;;;;;;28.52;20.73;;;2.30;99.90;;;;;;4991226;28;20205;-71
2021/01/18 11:16:27;;;;;;;25.02;19.63;;;2.30;99.90;;;;;;5002285;28;20739;-70
2021/01/18 11:19:05;;;;;;;24.95;18.60;;;2.40;99.90;;;;;;5002396;28;20221;-70
2021/01/18 11:21:31;;;;;;;24.30;19.33;;;2.40;99.90;;;;;;5012763;28;20200;-71
2021/01/18 11:23:56;;;;;;;22.60;18.05;;;2.40;99.90;;;;;;4997004;28;20702;-75
2021/01/18 11:26:23;;;;;;;22.25;18.60;;;2.50;99.90;;;;;;4995694;28;20170;-75
2021/01/18 11:28:49;;;;;;;23.50;18.98;;;2.50;99.90;;;;;;4994104;28;20282;-75
2021/01/18 11:31:15;;;;;;;24.92;19.83;;;2.50;99.90;;;;;;5007253;28;20198;-74
2021/01/18 11:33:42;;;;;;;22.33;18.30;;;2.60;99.90;;;;;;4990459;28;20228;-73
2021/01/18 11:36:08;;;;;;;23.48;19.08;;;2.60;99.90;;;;;;5013099;28;20643;-74
2021/01/18 11:38:34;;;;;;;24.25;19.15;;;2.60;99.90;;;;;;5011997;28;20204;-74
2021/01/18 11:40:59;;;;;;;24.00;18.90;;;2.60;99.90;;;;;;5013165;28;20538;-74
2021/01/18 11:43:25;;;;;;;22.65;19.05;;;2.70;99.90;;;;;;4996107;28;20647;-75
2021/01/18 11:45:51;;;;;;;22.92;18.45;;;2.70;99.90;;;;;;5012474;28;20701;-74
2021/01/18 11:48:16;;;;;;;24.17;18.70;;;2.70;99.90;;;;;;5011785;28;20247;-74
2021/01/18 11:50:42;;;;;;;22.35;19.23;;;2.70;99.90;;;;;;4996392;28;20309;-74
2021/01/18 11:53:09;;;;;;;23.42;18.83;;;2.70;99.90;;;;;;5011526;28;20201;-74
2021/01/18 11:55:35;;;;;;;23.50;19.60;;;2.70;99.90;;;;;;4995088;28;20578;-73
2021/01/18 11:58:01;;;;;;;23.83;19.52;;;2.70;99.90;;;;;;5011977;28;20197;-74
2021/01/18 12:00:28;;;;;;;21.65;18.35;;;2.70;99.90;;;;;;4994670;28;20184;-74
2021/01/18 12:02:59;;;;;;;21.77;17.55;;;2.80;99.90;;;;;;4995597;28;20204;-75
2021/01/18 12:05:27;;;;;;;20.88;17.60;;;2.80;99.90;;;;;;4994769;28;20177;-75
2021/01/18 12:07:55;;;;;;;21.65;18.38;;;2.80;99.90;;;;;;4994594;28;20746;-74
2021/01/18 12:10:21;;;;;;;20.75;17.60;;;2.80;99.90;;;;;;5011957;28;20174;-74
2021/01/18 12:12:47;;;;;;;21.23;17.02;;;2.80;99.90;;;;;;5012572;28;20213;-75
2021/01/18 12:15:13;;;;;;;19.70;15.57;;;2.80;99.90;;;;;;4992354;28;20238;-75
2021/01/18 12:17:42;;;;;;;17.92;15.90;;;2.80;99.90;;;;;;4994317;28;20565;-75
2021/01/18 12:20:11;;;;;;;18.88;16.05;;;2.80;99.90;;;;;;5011545;28;20311;-75
2021/01/18 12:22:37;;;;;;;22.75;17.42;;;2.90;99.90;;;;;;4994984;28;20185;-75
2021/01/18 12:25:04;;;;;;;18.77;16.67;;;2.80;99.90;;;;;;5011963;28;20228;-75
2021/01/18 12:27:30;;;;;;;20.25;17.08;;;2.80;99.90;;;;;;5012463;28;20178;-75
2021/01/18 12:29:56;;;;;;;20.23;16.65;;;2.80;99.90;;;;;;5012600;28;20169;-74
2021/01/18 12:32:21;;;;;;;19.90;16.77;;;2.80;99.90;;;;;;4994419;28;20216;-74
2021/01/18 12:34:47;;;;;;;19.48;15.82;;;2.80;99.90;;;;;;5012919;28;20503;-73
2021/01/18 12:37:13;;;;;;;18.58;15.48;;;2.80;99.90;;;;;;4994835;28;20227;-74
2021/01/18 12:39:38;;;;;;;18.70;16.55;;;2.80;99.90;;;;;;5011434;28;20200;-74
2021/01/18 12:42:05;;;;;;;19.15;17.05;;;2.80;99.90;;;;;;5011129;28;20177;-70
2021/01/18 12:44:31;;;;;;;21.92;17.05;;;2.80;99.90;;;;;;5011255;28;20594;-71
2021/01/18 12:47:07;;;;;;;17.25;15.23;;;2.80;99.90;;;;;;4994356;28;20169;-74
2021/01/18 12:49:33;;;;;;;18.15;15.75;;;2.90;99.90;;;;;;5008994;28;20201;-71
2021/01/18 12:51:59;;;;;;;19.27;16.55;;;2.90;99.90;;;;;;4981086;28;20212;-71
2021/01/18 12:54:25;;;;;;;18.23;15.65;;;2.90;99.90;;;;;;5003178;28;20186;-71
2021/01/18 12:56:54;;;;;;;17.92;15.50;;;2.90;99.90;;;;;;4979767;28;20260;-75
2021/01/18 12:59:20;;;;;;;20.17;16.60;;;2.90;99.90;;;;;;4997511;28;20236;-74
2021/01/18 13:01:47;;;;;;;19.75;16.30;;;2.90;99.90;;;;;;5003552;28;20227;-75
2021/01/18 13:04:12;;;;;;;19.33;15.90;;;3.00;99.90;;;;;;5010627;28;20247;-75
2021/01/18 13:06:39;;;;;;;18.58;15.10;;;3.00;99.90;;;;;;5012767;28;20181;-73
2021/01/18 13:09:16;;;;;;;18.98;15.77;;;3.00;99.90;;;;;;5014858;28;20193;-73
2021/01/18 13:11:47;;;;;;;20.48;16.77;;;3.10;99.90;;;;;;5015691;28;20205;-73
2021/01/18 13:14:14;;;;;;;19.85;15.90;;;3.10;99.90;;;;;;4998306;28;20643;-74
2021/01/18 13:16:40;;;;;;;19.52;16.58;;;3.10;99.90;;;;;;5016074;28;20537;-73
2021/01/18 13:19:06;;;;;;;20.15;16.52;;;3.20;99.90;;;;;;5015816;28;20276;-74
2021/01/18 13:21:32;;;;;;;19.30;16.10;;;3.20;99.90;;;;;;5015690;28;20169;-73
2021/01/18 13:23:58;;;;;;;21.27;18.15;;;3.20;99.90;;;;;;5015118;28;20259;-74
2021/01/18 13:26:23;;;;;;;22.38;17.95;;;3.30;99.90;;;;;;5015389;28;20177;-74
2021/01/18 13:28:52;;;;;;;21.80;18.02;;;3.20;99.90;;;;;;4997611;28;20197;-74
2021/01/18 13:31:18;;;;;;;18.75;16.20;;;3.20;99.90;;;;;;5015667;28;20598;-74
2021/01/18 13:33:49;;;;;;;23.92;17.67;;;3.20;99.90;;;;;;4997446;28;20200;-74
2021/01/18 13:36:26;;;;;;;19.27;16.90;;;3.20;99.90;;;;;;5009373;28;20178;-74
2021/01/18 13:38:55;;;;;;;23.00;17.35;;;3.20;99.90;;;;;;5009202;28;20272;-74
2021/01/18 13:41:21;;;;;;;19.55;17.10;;;3.20;99.90;;;;;;4999352;28;20170;-74
2021/01/18 13:43:48;;;;;;;22.10;17.60;;;3.20;99.90;;;;;;4979798;28;20697;-74
2021/01/18 13:46:19;;;;;;;21.27;17.77;;;3.20;99.90;;;;;;4997613;28;20173;-74
2021/01/18 13:48:46;;;;;;;25.25;18.77;;;3.20;99.90;;;;;;5015623;28;20185;-74
2021/01/18 13:51:23;;;;;;;22.38;19.38;;;3.20;99.90;;;;;;5014070;28;20209;-74
2021/01/18 13:53:51;;;;;;;22.02;18.02;;;3.20;99.90;;;;;;4996583;28;20193;-73
2021/01/18 13:56:23;;;;;;;20.05;17.85;;;3.20;99.90;;;;;;4997101;28;20176;-74
2021/01/18 13:58:50;;;;;;;21.92;18.48;;;3.20;99.90;;;;;;4983794;28;20296;-73
2021/01/18 14:01:28;;;;;;;22.58;18.13;;;3.20;99.90;;;;;;4996161;28;20179;-73
2021/01/18 14:03:58;;;;;;;23.08;18.50;;;3.20;99.90;;;;;;5014511;28;20671;-74
2021/01/18 14:06:27;;;;;;;20.48;17.50;;;3.20;99.90;;;;;;4984881;28;20178;-74
2021/01/18 14:08:57;;;;;;;23.50;18.38;;;3.20;99.90;;;;;;4976800;28;20327;-75
2021/01/18 14:11:38;;;;;;;24.30;21.70;;;3.20;99.90;;;;;;4986435;28;20443;-74
2021/01/18 14:14:05;;;;;;;23.33;19.75;;;3.10;99.90;;;;;;4991461;28;20193;-73
2021/01/18 14:16:31;;;;;;;21.83;18.88;;;3.10;99.90;;;;;;5008645;28;20180;-76
2021/01/18 14:18:57;;;;;;;23.55;18.83;;;3.10;99.90;;;;;;4997511;28;20520;-74
2021/01/18 14:21:22;;;;;;;23.60;20.02;;;3.10;99.90;;;;;;5014501;28;20187;-74
2021/01/18 14:23:48;;;;;;;23.67;20.02;;;3.10;99.90;;;;;;4996442;28;20284;-73
2021/01/18 14:26:24;;;;;;;21.55;18.40;;;3.10;99.90;;;;;;5014108;28;20188;-73
2021/01/18 14:28:50;;;;;;;24.63;18.00;;;3.10;99.90;;;;;;5012060;28;20193;-73
2021/01/18 14:31:20;;;;;;;21.17;17.90;;;3.10;99.90;;;;;;4980076;28;20269;-74
2021/01/18 14:33:46;;;;;;;24.13;18.90;;;3.00;99.90;;;;;;5008571;28;20197;-74
2021/01/18 14:36:17;;;;;;;24.58;18.95;;;3.00;99.90;;;;;;5014413;28;20601;-74
2021/01/18 14:38:43;;;;;;;22.45;18.73;;;3.00;99.90;;;;;;5013916;28;20247;-74
2021/01/18 14:41:15;;;;;;;21.77;18.30;;;3.00;99.90;;;;;;4996416;28;20173;-74
2021/01/18 14:43:42;;;;;;;21.45;18.00;;;3.00;99.90;;;;;;5014034;28;20744;-74
2021/01/18 14:46:08;;;;;;;22.05;17.83;;;3.00;99.90;;;;;;5013785;28;20161;-73
2021/01/18 14:48:36;;;;;;;21.73;17.55;;;3.00;99.90;;;;;;5013767;28;20705;-74
2021/01/18 14:51:02;;;;;;;22.92;18.27;;;3.00;99.90;;;;;;5013142;28;20211;-74
2021/01/18 14:53:27;;;;;;;21.45;18.80;;;3.00;99.90;;;;;;5013700;28;20232;-75
2021/01/18 14:55:53;;;;;;;20.83;18.30;;;3.00;99.90;;;;;;4995971;28;20173;-74
2021/01/18 14:58:18;;;;;;;25.40;18.45;;;3.00;99.90;;;;;;5011871;28;20201;-74
2021/01/18 15:00:44;;;;;;;22.20;18.25;;;2.90;99.90;;;;;;5011320;28;20175;-73
2021/01/18 15:03:10;;;;;;;21.30;18.63;;;3.00;99.90;;;;;;5012490;28;20200;-75
2021/01/18 15:05:35;;;;;;;23.73;18.65;;;2.90;99.90;;;;;;5012744;28;20801;-76
2021/01/18 15:08:01;;;;;;;23.88;18.52;;;2.90;99.90;;;;;;5012700;28;20599;-72
2021/01/18 15:10:27;;;;;;;21.35;18.88;;;2.90;99.90;;;;;;5013413;28;20185;-73
2021/01/18 15:12:52;;;;;;;21.20;18.35;;;2.90;99.90;;;;;;5013486;28;20213;-73
2021/01/18 15:15:18;;;;;;;19.83;16.55;;;2.90;99.90;;;;;;5013276;28;20232;-73
2021/01/18 15:17:44;;;;;;;20.10;17.77;;;2.90;99.90;;;;;;5012395;28;20189;-73
2021/01/18 15:20:10;;;;;;;19.13;15.07;;;2.90;99.90;;;;;;5013526;28;20172;-73
2021/01/18 15:22:36;;;;;;;17.17;14.25;;;2.90;99.90;;;;;;5013406;28;20185;-73
2021/01/18 15:25:02;;;;;;;11.65;10.45;;;2.90;99.90;;;;;;5012621;28;20236;-73
2021/01/18 15:27:27;;;;;;;11.13;9.60;;;2.90;99.90;;;;;;5013000;28;20555;-73
2021/01/18 15:29:53;;;;;;;8.93;8.07;;;2.90;99.90;;;;;;5012699;28;20174;-73
2021/01/18 15:32:19;;;;;;;8.18;7.38;;;3.00;99.90;;;;;;5013404;28;20517;-72
2021/01/18 15:34:44;;;;;;;8.95;8.05;;;3.00;99.90;;;;;;5012738;28;20201;-73
2021/01/18 15:37:11;;;;;;;10.02;8.50;;;3.00;99.90;;;;;;5012023;28;20244;-72
2021/01/18 15:39:36;;;;;;;9.02;7.50;;;3.00;99.90;;;;;;5011799;28;20260;-73
2021/01/18 15:42:03;;;;;;;8.98;7.97;;;3.00;99.90;;;;;;5012418;28;20333;-73
2021/01/18 15:44:28;;;;;;;9.20;7.05;;;3.00;99.90;;;;;;5013198;28;20220;-73
2021/01/18 15:46:56;;;;;;;7.25;6.55;;;3.00;99.90;;;;;;5010772;28;20656;-73
2021/01/18 15:49:22;;;;;;;6.80;6.18;;;3.00;99.90;;;;;;5012659;28;20197;-73
2021/01/18 15:51:52;;;;;;;8.25;6.30;;;3.00;99.90;;;;;;5011703;28;20217;-73
2021/01/18 15:54:17;;;;;;;6.88;6.18;;;3.00;99.90;;;;;;5012094;28;20204;-72
2021/01/18 15:56:43;;;;;;;9.63;6.45;;;3.00;99.90;;;;;;5011350;28;20543;-73
2021/01/18 15:59:08;;;;;;;11.32;7.35;;;3.00;99.90;;;;;;5012253;28;20220;-73
2021/01/18 16:01:34;;;;;;;8.27;6.60;;;3.00;99.90;;;;;;4994411;28;20293;-73
2021/01/18 16:04:00;;;;;;;7.97;6.25;;;3.00;99.90;;;;;;5012470;28;20200;-73
2021/01/18 16:06:26;;;;;;;7.78;6.57;;;3.00;99.90;;;;;;4994563;28;20256;-73
2021/01/18 16:08:52;;;;;;;7.22;6.38;;;3.00;99.90;;;;;;5011809;28;20193;-73
2021/01/18 16:11:22;;;;;;;9.98;6.75;;;3.00;99.90;;;;;;5012263;28;20211;-74
2021/01/18 16:13:48;;;;;;;8.27;6.20;;;3.00;99.90;;;;;;5012596;28;20609;-74
2021/01/18 16:16:16;;;;;;;7.45;5.88;;;3.00;99.90;;;;;;5012586;28;20265;-73
2021/01/18 16:18:42;;;;;;;10.25;7.45;;;3.00;99.90;;;;;;5012494;28;20611;-73
2021/01/18 16:21:08;;;;;;;7.88;7.07;;;3.00;99.90;;;;;;5012613;28;20173;-73
2021/01/18 16:23:34;;;;;;;7.03;6.18;;;3.00;99.90;;;;;;4993107;28;20297;-73
2021/01/18 16:26:00;;;;;;;8.75;6.43;;;3.00;99.90;;;;;;4994806;28;20208;-73
2021/01/18 16:28:26;;;;;;;7.63;6.47;;;3.00;99.90;;;;;;4994691;28;20308;-73
2021/01/18 16:30:51;;;;;;;6.82;6.18;;;3.00;99.90;;;;;;5012310;28;20216;-73
2021/01/18 16:33:17;;;;;;;7.93;6.05;;;3.00;99.90;;;;;;5011854;28;20228;-73
2021/01/18 16:35:43;;;;;;;8.10;6.78;;;3.00;99.90;;;;;;4994283;28;20260;-73
2021/01/18 16:38:13;;;;;;;8.30;7.28;;;3.00;99.90;;;;;;5011180;28;20200;-73
2021/01/18 16:40:39;;;;;;;8.18;7.25;;;3.10;99.90;;;;;;5011691;28;20180;-73
2021/01/18 16:43:05;;;;;;;7.10;6.18;;;3.00;99.90;;;;;;5011609;28;20193;-73
2021/01/18 16:45:32;;;;;;;8.30;7.05;;;3.00;99.90;;;;;;5011756;28;20177;-73
2021/01/18 16:47:58;;;;;;;7.32;6.63;;;3.10;99.90;;;;;;5011748;28;20193;-72
2021/01/18 16:50:24;;;;;;;7.28;6.55;;;3.10;99.90;;;;;;4993961;28;20188;-73
2021/01/18 16:52:50;;;;;;;8.40;6.38;;;3.10;99.90;;;;;;5011228;28;20220;-74
2021/01/18 16:55:16;;;;;;;10.32;7.38;;;3.10;99.90;;;;;;5012095;28;20570;-74
2021/01/18 16:57:43;;;;;;;8.15;6.68;;;3.10;99.90;;;;;;5012472;28;20223;-74
2021/01/18 17:00:10;;;;;;;7.25;5.95;;;3.10;99.90;;;;;;5011030;28;20181;-75
2021/01/18 17:02:37;;;;;;;7.85;7.03;;;3.10;99.90;;;;;;4994315;28;20188;-74
2021/01/18 17:05:07;;;;;;;7.78;6.78;;;3.10;99.90;;;;;;5010747;28;20522;-74
2021/01/18 17:07:32;;;;;;;7.95;7.13;;;1.80;99.90;;;;;;4993803;28;20185;-75
2021/01/18 17:09:58;;;;;;;8.60;7.15;;;3.10;99.90;;;;;;5010386;28;20182;-73
2021/01/18 17:12:24;;;;;;;7.72;6.97;;;3.10;99.90;;;;;;5011966;28;20571;-74
2021/01/18 17:14:49;;;;;;;9.13;6.80;;;3.10;99.90;;;;;;5010857;28;20703;-75
2021/01/18 17:17:15;;;;;;;7.82;6.55;;;3.10;99.90;;;;;;5011971;28;20187;-73
2021/01/18 17:19:43;;;;;;;8.02;7.07;;;3.10;99.90;;;;;;5011487;28;20255;-74
2021/01/18 17:22:10;;;;;;;6.93;6.20;;;3.10;99.90;;;;;;5011863;28;20577;-73
2021/01/18 17:24:38;;;;;;;8.02;7.22;;;3.10;99.90;;;;;;4993709;28;20228;-74
2021/01/18 17:27:04;;;;;;;7.88;6.97;;;3.10;99.90;;;;;;5011803;28;20249;-76
2021/01/18 17:29:30;;;;;;;8.77;6.30;;;3.10;99.90;;;;;;5011136;28;20205;-74
2021/01/18 17:31:56;;;;;;;7.90;6.30;;;3.10;99.90;;;;;;5010573;28;20212;-74
2021/01/18 17:34:22;;;;;;;7.03;6.30;;;3.10;99.90;;;;;;4992203;28;20624;-74
2021/01/18 17:36:51;;;;;;;7.78;6.75;;;3.10;99.90;;;;;;5010118;28;20192;-74
2021/01/18 17:39:18;;;;;;;7.93;7.05;;;3.10;99.90;;;;;;4992887;28;20189;-74
2021/01/18 17:41:49;;;;;;;9.00;6.43;;;3.10;99.90;;;;;;5009788;28;20574;-74
2021/01/18 17:44:14;;;;;;;7.88;7.07;;;3.10;99.90;;;;;;4993660;28;20197;-73
2021/01/18 17:46:41;;;;;;;9.43;7.15;;;3.10;99.90;;;;;;5011173;28;20180;-73
2021/01/18 17:49:07;;;;;;;7.45;6.75;;;3.10;99.90;;;;;;5011278;28;20186;-73
2021/01/18 17:51:32;;;;;;;8.55;7.05;;;3.10;99.90;;;;;;5011944;28;20212;-71
2021/01/18 17:53:58;;;;;;;7.53;6.75;;;3.10;99.90;;;;;;4997069;28;20538;-72
2021/01/18 17:56:31;;;;;;;8.65;6.70;;;3.10;99.90;;;;;;5014940;28;20169;-73
2021/01/18 17:58:58;;;;;;;8.40;7.10;;;3.10;99.90;;;;;;5015132;28;20196;-73
2021/01/18 18:01:26;;;;;;;7.78;6.85;;;3.10;99.90;;;;;;5010197;28;20263;-72
2021/01/18 18:03:52;;;;;;;10.18;7.15;;;3.10;99.90;;;;;;5009607;28;20181;-72
2021/01/18 18:06:25;;;;;;;9.35;6.95;;;3.10;99.90;;;;;;5012999;28;20209;-74
2021/01/18 18:08:52;;;;;;;7.68;6.65;;;3.10;99.90;;;;;;4994902;28;20256;-72
2021/01/18 18:11:17;;;;;;;8.15;6.80;;;3.10;99.90;;;;;;5012446;28;20229;-75
2021/01/18 18:13:43;;;;;;;9.48;6.97;;;3.20;99.90;;;;;;5013998;28;20287;-74
2021/01/18 18:16:18;;;;;;;9.35;7.28;;;3.20;99.90;;;;;;4995939;28;20690;-73